LKMT/OSR METAR and TAF weather

Enter ICAO airport designator
Station Type Date Time Source
LKMT METAR 2019/04/20 18:00 UTC NOAA

LKMT 201800Z 35006KT CAVOK 15/00 Q1026 NOSIG


Station Type Date Time Source
LKMT Decoded METAR 2019/04/20 18:00 UTC NOAA

Ostrava / Mosnov, Czech Republic (LKMT) 49-41N 018-07E 256M
Apr 20, 2019 - 02:00 PM EDT / 2019.04.20 1800 UTC
Wind: from the N (350 degrees) at 7 MPH (6 KT):0
Visibility: greater than 7 mile(s):0
Temperature: 59 F (15 C)
Dew Point: 32 F (0 C)
Relative Humidity: 35%
Pressure (altimeter): 30.30 in. Hg (1026 hPa)
ob: LKMT 201800Z 35006KT CAVOK 15/00 Q1026 NOSIG
cycle: 18

Station Type Date Time Source
LKMT TAF 2019/04/20 18:05 UTC NOAA

TAF LKMT 201700Z 2018/2200 03005KT CAVOK
TEMPO 2110/2117 01012KT
TEMPO 2121/2200 VRB02KT

Example: see airport list